sensor_id;sensor_type;location;lat;lon;timestamp;temperature;humidity
46492;DHT22;32206;51.446;6.792;2023-05-17T00:00:50;11.00;25.40
46492;DHT22;32206;51.446;6.792;2023-05-17T00:03:15;11.00;26.30
46492;DHT22;32206;51.446;6.792;2023-05-17T00:05:41;10.90;30.00
46492;DHT22;32206;51.446;6.792;2023-05-17T00:08:07;11.20;31.50
46492;DHT22;32206;51.446;6.792;2023-05-17T00:10:32;10.90;32.70
46492;DHT22;32206;51.446;6.792;2023-05-17T00:12:58;10.90;35.70
46492;DHT22;32206;51.446;6.792;2023-05-17T00:15:24;10.90;40.50
46492;DHT22;32206;51.446;6.792;2023-05-17T00:17:49;10.90;40.80
46492;DHT22;32206;51.446;6.792;2023-05-17T00:20:15;10.90;41.80
46492;DHT22;32206;51.446;6.792;2023-05-17T00:22:40;10.80;40.30
46492;DHT22;32206;51.446;6.792;2023-05-17T00:25:07;10.80;42.40
46492;DHT22;32206;51.446;6.792;2023-05-17T00:27:33;10.80;44.30
46492;DHT22;32206;51.446;6.792;2023-05-17T00:29:59;10.80;41.60
46492;DHT22;32206;51.446;6.792;2023-05-17T00:32:24;10.80;45.50
46492;DHT22;32206;51.446;6.792;2023-05-17T00:34:50;10.70;44.20
46492;DHT22;32206;51.446;6.792;2023-05-17T00:44:00;10.70;49.20
46492;DHT22;32206;51.446;6.792;2023-05-17T00:46:26;10.60;53.20
46492;DHT22;32206;51.446;6.792;2023-05-17T00:48:52;10.60;55.00
46492;DHT22;32206;51.446;6.792;2023-05-17T00:51:18;10.60;57.80
46492;DHT22;32206;51.446;6.792;2023-05-17T00:53:45;10.60;58.70
46492;DHT22;32206;51.446;6.792;2023-05-17T00:56:11;10.60;58.10
46492;DHT22;32206;51.446;6.792;2023-05-17T00:58:37;10.60;57.30
46492;DHT22;32206;51.446;6.792;2023-05-17T01:01:05;10.60;58.40
46492;DHT22;32206;51.446;6.792;2023-05-17T01:03:31;10.60;59.30
46492;DHT22;32206;51.446;6.792;2023-05-17T01:05:56;10.60;62.40
46492;DHT22;32206;51.446;6.792;2023-05-17T01:08:22;10.60;63.60
46492;DHT22;32206;51.446;6.792;2023-05-17T01:11:13;10.60;66.10
46492;DHT22;32206;51.446;6.792;2023-05-17T01:22:42;10.50;71.60
46492;DHT22;32206;51.446;6.792;2023-05-17T01:27:57;10.40;76.10
46492;DHT22;32206;51.446;6.792;2023-05-17T01:30:25;10.40;80.30
46492;DHT22;32206;51.446;6.792;2023-05-17T01:32:52;10.40;80.80
46492;DHT22;32206;51.446;6.792;2023-05-17T01:35:20;10.40;82.00
46492;DHT22;32206;51.446;6.792;2023-05-17T01:37:46;10.50;80.50
46492;DHT22;32206;51.446;6.792;2023-05-17T01:40:12;10.30;83.40
46492;DHT22;32206;51.446;6.792;2023-05-17T01:42:40;10.20;84.80
46492;DHT22;32206;51.446;6.792;2023-05-17T01:45:27;10.20;88.50
46492;DHT22;32206;51.446;6.792;2023-05-17T01:50:37;10.20;91.70
46492;DHT22;32206;51.446;6.792;2023-05-17T01:53:10;10.10;91.70
46492;DHT22;32206;51.446;6.792;2023-05-17T01:56:01;10.00;94.30
46492;DHT22;32206;51.446;6.792;2023-05-17T01:58:28;9.90;95.10
46492;DHT22;32206;51.446;6.792;2023-05-17T02:00:55;9.90;96.30
46492;DHT22;32206;51.446;6.792;2023-05-17T02:03:22;9.90;96.80
46492;DHT22;32206;51.446;6.792;2023-05-17T02:05:47;10.10;97.80
46492;DHT22;32206;51.446;6.792;2023-05-17T02:08:13;9.80;98.70
46492;DHT22;32206;51.446;6.792;2023-05-17T02:10:39;9.80;99.90
46492;DHT22;32206;51.446;6.792;2023-05-17T02:13:04;9.80;99.90
46492;DHT22;32206;51.446;6.792;2023-05-17T02:28:52;9.70;99.90
46492;DHT22;32206;51.446;6.792;2023-05-17T02:31:18;9.60;99.90
46492;DHT22;32206;51.446;6.792;2023-05-17T02:33:44;9.60;99.90
46492;DHT22;32206;51.446;6.792;2023-05-17T02:42:54;9.50;99.90
46492;DHT22;32206;51.446;6.792;2023-05-17T02:45:20;9.50;99.90
46492;DHT22;32206;51.446;6.792;2023-05-17T02:47:45;9.50;99.90
46492;DHT22;32206;51.446;6.792;2023-05-17T02:50:11;9.50;99.90
46492;DHT22;32206;51.446;6.792;2023-05-17T02:52:37;9.50;99.90
46492;DHT22;32206;51.446;6.792;2023-05-17T02:55:03;9.50;99.90
46492;DHT22;32206;51.446;6.792;2023-05-17T02:57:28;9.50;99.90
46492;DHT22;32206;51.446;6.792;2023-05-17T02:59:54;9.50;99.90
46492;DHT22;32206;51.446;6.792;2023-05-17T03:02:20;9.50;99.90
46492;DHT22;32206;51.446;6.792;2023-05-17T03:04:45;9.50;99.90
46492;DHT22;32206;51.446;6.792;2023-05-17T03:07:11;9.50;99.90
46492;DHT22;32206;51.446;6.792;2023-05-17T03:09:37;9.50;99.90
46492;DHT22;32206;51.446;6.792;2023-05-17T03:12:03;9.50;99.90
46492;DHT22;32206;51.446;6.792;2023-05-17T03:14:28;9.40;99.90
46492;DHT22;32206;51.446;6.792;2023-05-17T03:16:54;9.40;99.90
46492;DHT22;32206;51.446;6.792;2023-05-17T03:19:19;9.40;99.90
46492;DHT22;32206;51.446;6.792;2023-05-17T03:21:45;9.50;99.90
46492;DHT22;32206;51.446;6.792;2023-05-17T03:24:11;9.40;99.90
46492;DHT22;32206;51.446;6.792;2023-05-17T03:26:36;9.40;99.90
46492;DHT22;32206;51.446;6.792;2023-05-17T03:29:02;9.40;99.90
46492;DHT22;32206;51.446;6.792;2023-05-17T03:31:28;9.40;99.90
46492;DHT22;32206;51.446;6.792;2023-05-17T03:33:53;9.60;99.90
46492;DHT22;32206;51.446;6.792;2023-05-17T03:43:03;9.40;99.90
46492;DHT22;32206;51.446;6.792;2023-05-17T03:45:29;9.50;99.90
46492;DHT22;32206;51.446;6.792;2023-05-17T03:47:55;9.50;99.90
46492;DHT22;32206;51.446;6.792;2023-05-17T03:50:20;9.50;99.90
46492;DHT22;32206;51.446;6.792;2023-05-17T03:52:47;9.60;99.90
46492;DHT22;32206;51.446;6.792;2023-05-17T03:55:12;9.50;99.90
46492;DHT22;32206;51.446;6.792;2023-05-17T03:57:38;9.60;99.90
46492;DHT22;32206;51.446;6.792;2023-05-17T04:00:04;9.60;99.90
46492;DHT22;32206;51.446;6.792;2023-05-17T04:02:37;9.60;99.90
46492;DHT22;32206;51.446;6.792;2023-05-17T04:05:03;9.70;99.90
46492;DHT22;32206;51.446;6.792;2023-05-17T04:07:28;9.70;99.90
46492;DHT22;32206;51.446;6.792;2023-05-17T04:09:56;9.80;99.90
46492;DHT22;32206;51.446;6.792;2023-05-17T04:12:26;9.80;99.90
46492;DHT22;32206;51.446;6.792;2023-05-17T04:14:52;9.80;99.90
46492;DHT22;32206;51.446;6.792;2023-05-17T04:17:18;9.80;99.90
46492;DHT22;32206;51.446;6.792;2023-05-17T04:19:43;9.90;99.90
46492;DHT22;32206;51.446;6.792;2023-05-17T04:22:09;9.90;99.90
46492;DHT22;32206;51.446;6.792;2023-05-17T04:24:34;9.90;99.90
46492;DHT22;32206;51.446;6.792;2023-05-17T04:27:00;10.00;99.90
46492;DHT22;32206;51.446;6.792;2023-05-17T04:29:28;10.20;99.90
46492;DHT22;32206;51.446;6.792;2023-05-17T04:31:54;10.00;99.90
46492;DHT22;32206;51.446;6.792;2023-05-17T04:34:20;10.00;99.90
46492;DHT22;32206;51.446;6.792;2023-05-17T04:36:48;10.00;99.90
46492;DHT22;32206;51.446;6.792;2023-05-17T04:39:13;10.10;99.90
46492;DHT22;32206;51.446;6.792;2023-05-17T04:41:39;10.10;99.90
46492;DHT22;32206;51.446;6.792;2023-05-17T04:44:05;10.20;99.90
46492;DHT22;32206;51.446;6.792;2023-05-17T04:46:34;10.10;99.90
46492;DHT22;32206;51.446;6.792;2023-05-17T04:49:00;10.10;99.90
46492;DHT22;32206;51.446;6.792;2023-05-17T04:51:28;10.10;99.90
46492;DHT22;32206;51.446;6.792;2023-05-17T04:53:54;10.10;99.90
46492;DHT22;32206;51.446;6.792;2023-05-17T04:56:19;10.10;99.90
46492;DHT22;32206;51.446;6.792;2023-05-17T04:58:45;10.10;99.90
46492;DHT22;32206;51.446;6.792;2023-05-17T05:08:08;10.20;99.90
46492;DHT22;32206;51.446;6.792;2023-05-17T05:10:34;10.20;99.90
46492;DHT22;32206;51.446;6.792;2023-05-17T05:16:27;10.20;99.90
46492;DHT22;32206;51.446;6.792;2023-05-17T05:18:53;10.30;99.90
46492;DHT22;32206;51.446;6.792;2023-05-17T05:21:18;10.40;99.90
46492;DHT22;32206;51.446;6.792;2023-05-17T05:23:44;10.40;99.90
46492;DHT22;32206;51.446;6.792;2023-05-17T05:26:10;10.30;99.90
46492;DHT22;32206;51.446;6.792;2023-05-17T05:28:35;10.40;99.90
46492;DHT22;32206;51.446;6.792;2023-05-17T05:31:02;10.60;99.90
46492;DHT22;32206;51.446;6.792;2023-05-17T05:33:27;10.40;98.10
46492;DHT22;32206;51.446;6.792;2023-05-17T05:35:53;10.40;94.10
46492;DHT22;32206;51.446;6.792;2023-05-17T05:38:18;10.40;91.90
46492;DHT22;32206;51.446;6.792;2023-05-17T05:40:47;10.40;84.20
46492;DHT22;32206;51.446;6.792;2023-05-17T05:43:14;10.50;74.70
46492;DHT22;32206;51.446;6.792;2023-05-17T05:45:39;10.60;71.60
46492;DHT22;32206;51.446;6.792;2023-05-17T05:48:11;10.50;71.00
46492;DHT22;32206;51.446;6.792;2023-05-17T05:50:37;10.70;65.00
46492;DHT22;32206;51.446;6.792;2023-05-17T05:53:03;10.80;62.50
46492;DHT22;32206;51.446;6.792;2023-05-17T05:55:29;10.90;46.70
46492;DHT22;32206;51.446;6.792;2023-05-17T05:57:54;10.90;40.00
46492;DHT22;32206;51.446;6.792;2023-05-17T06:00:21;11.00;9.80
46492;DHT22;32206;51.446;6.792;2023-05-17T06:02:47;11.00;1.00
46492;DHT22;32206;51.446;6.792;2023-05-17T06:05:12;11.00;1.00
46492;DHT22;32206;51.446;6.792;2023-05-17T06:07:38;11.20;1.00
46492;DHT22;32206;51.446;6.792;2023-05-17T06:16:38;11.30;1.00
46492;DHT22;32206;51.446;6.792;2023-05-17T06:19:05;11.40;99.90
46492;DHT22;32206;51.446;6.792;2023-05-17T06:21:30;11.40;99.90
46492;DHT22;32206;51.446;6.792;2023-05-17T06:27:18;11.50;99.90
46492;DHT22;32206;51.446;6.792;2023-05-17T06:29:44;11.60;99.90
46492;DHT22;32206;51.446;6.792;2023-05-17T06:32:09;11.50;99.90
46492;DHT22;32206;51.446;6.792;2023-05-17T06:34:35;11.50;99.90
46492;DHT22;32206;51.446;6.792;2023-05-17T06:37:01;11.50;99.90
46492;DHT22;32206;51.446;6.792;2023-05-17T06:39:27;11.50;99.90
46492;DHT22;32206;51.446;6.792;2023-05-17T06:41:53;11.60;99.90
46492;DHT22;32206;51.446;6.792;2023-05-17T06:44:19;11.70;99.90
46492;DHT22;32206;51.446;6.792;2023-05-17T06:46:44;11.80;99.90
46492;DHT22;32206;51.446;6.792;2023-05-17T06:49:10;12.00;99.90
46492;DHT22;32206;51.446;6.792;2023-05-17T06:51:36;11.90;99.90
46492;DHT22;32206;51.446;6.792;2023-05-17T06:54:01;11.80;99.90
46492;DHT22;32206;51.446;6.792;2023-05-17T06:56:27;11.80;99.90
46492;DHT22;32206;51.446;6.792;2023-05-17T06:58:52;11.80;99.90
46492;DHT22;32206;51.446;6.792;2023-05-17T07:08:23;12.10;22.90
46492;DHT22;32206;51.446;6.792;2023-05-17T07:10:52;12.10;1.00
46492;DHT22;32206;51.446;6.792;2023-05-17T07:13:18;12.20;99.90
46492;DHT22;32206;51.446;6.792;2023-05-17T07:15:44;12.20;1.00
46492;DHT22;32206;51.446;6.792;2023-05-17T07:18:10;12.20;99.90
46492;DHT22;32206;51.446;6.792;2023-05-17T07:20:35;12.30;99.90
46492;DHT22;32206;51.446;6.792;2023-05-17T07:23:01;12.30;9.60
46492;DHT22;32206;51.446;6.792;2023-05-17T07:25:28;12.40;99.90
46492;DHT22;32206;51.446;6.792;2023-05-17T07:27:54;12.40;99.90
46492;DHT22;32206;51.446;6.792;2023-05-17T07:30:19;12.50;99.90
46492;DHT22;32206;51.446;6.792;2023-05-17T07:32:45;12.60;99.90
46492;DHT22;32206;51.446;6.792;2023-05-17T07:45:24;12.80;1.00
46492;DHT22;32206;51.446;6.792;2023-05-17T07:47:50;12.80;99.90
46492;DHT22;32206;51.446;6.792;2023-05-17T07:50:15;12.80;99.90
46492;DHT22;32206;51.446;6.792;2023-05-17T07:52:41;12.80;1.00
46492;DHT22;32206;51.446;6.792;2023-05-17T07:55:07;12.90;99.90
46492;DHT22;32206;51.446;6.792;2023-05-17T07:57:33;12.80;1.00
46492;DHT22;32206;51.446;6.792;2023-05-17T07:59:59;12.80;99.90
46492;DHT22;32206;51.446;6.792;2023-05-17T08:02:24;12.70;99.90
46492;DHT22;32206;51.446;6.792;2023-05-17T08:04:50;12.70;1.00
46492;DHT22;32206;51.446;6.792;2023-05-17T08:07:16;12.90;1.00
46492;DHT22;32206;51.446;6.792;2023-05-17T08:09:41;13.00;1.00
46492;DHT22;32206;51.446;6.792;2023-05-17T08:12:09;13.00;99.90
46492;DHT22;32206;51.446;6.792;2023-05-17T08:14:35;13.00;1.00
46492;DHT22;32206;51.446;6.792;2023-05-17T08:20:23;13.00;1.00
46492;DHT22;32206;51.446;6.792;2023-05-17T08:22:48;13.10;99.90
46492;DHT22;32206;51.446;6.792;2023-05-17T08:25:14;13.10;99.90
46492;DHT22;32206;51.446;6.792;2023-05-17T08:27:40;13.10;99.90
46492;DHT22;32206;51.446;6.792;2023-05-17T08:30:06;13.10;99.90
46492;DHT22;32206;51.446;6.792;2023-05-17T08:35:53;13.10;99.90
46492;DHT22;32206;51.446;6.792;2023-05-17T08:38:20;13.10;99.90
46492;DHT22;32206;51.446;6.792;2023-05-17T08:40:55;13.20;99.90
46492;DHT22;32206;51.446;6.792;2023-05-17T08:43:21;13.20;1.00
46492;DHT22;32206;51.446;6.792;2023-05-17T08:49:10;13.80;1.00
46492;DHT22;32206;51.446;6.792;2023-05-17T08:51:38;14.00;99.90
46492;DHT22;32206;51.446;6.792;2023-05-17T08:54:04;14.10;99.90
46492;DHT22;32206;51.446;6.792;2023-05-17T08:56:34;14.30;99.90
46492;DHT22;32206;51.446;6.792;2023-05-17T08:59:05;14.40;99.90
46492;DHT22;32206;51.446;6.792;2023-05-17T09:05:03;14.00;99.90
46492;DHT22;32206;51.446;6.792;2023-05-17T09:10:18;13.70;99.90
46492;DHT22;32206;51.446;6.792;2023-05-17T09:12:44;13.60;1.00
46492;DHT22;32206;51.446;6.792;2023-05-17T09:15:16;13.60;99.90
46492;DHT22;32206;51.446;6.792;2023-05-17T09:17:42;13.70;99.90
46492;DHT22;32206;51.446;6.792;2023-05-17T09:20:09;13.80;99.90
46492;DHT22;32206;51.446;6.792;2023-05-17T09:22:35;13.90;99.90
46492;DHT22;32206;51.446;6.792;2023-05-17T09:28:26;14.30;90.40
46492;DHT22;32206;51.446;6.792;2023-05-17T09:30:53;14.40;1.00
46492;DHT22;32206;51.446;6.792;2023-05-17T09:33:19;14.00;1.00
46492;DHT22;32206;51.446;6.792;2023-05-17T09:35:46;14.00;1.00
46492;DHT22;32206;51.446;6.792;2023-05-17T09:38:12;14.20;1.00
46492;DHT22;32206;51.446;6.792;2023-05-17T09:40:39;14.40;1.00
46492;DHT22;32206;51.446;6.792;2023-05-17T09:43:06;14.70;1.00
46492;DHT22;32206;51.446;6.792;2023-05-17T09:45:32;14.60;1.00
46492;DHT22;32206;51.446;6.792;2023-05-17T09:48:10;14.60;1.00
46492;DHT22;32206;51.446;6.792;2023-05-17T09:50:36;14.40;1.00
46492;DHT22;32206;51.446;6.792;2023-05-17T09:55:51;14.40;1.00
46492;DHT22;32206;51.446;6.792;2023-05-17T09:58:17;14.60;1.00
46492;DHT22;32206;51.446;6.792;2023-05-17T10:00:44;14.70;1.00
46492;DHT22;32206;51.446;6.792;2023-05-17T10:03:12;15.00;1.00
46492;DHT22;32206;51.446;6.792;2023-05-17T10:05:41;15.10;1.00
46492;DHT22;32206;51.446;6.792;2023-05-17T10:08:09;15.10;1.00
46492;DHT22;32206;51.446;6.792;2023-05-17T10:17:19;15.30;1.00
46492;DHT22;32206;51.446;6.792;2023-05-17T10:19:45;15.50;1.00
46492;DHT22;32206;51.446;6.792;2023-05-17T10:22:11;15.70;1.00
46492;DHT22;32206;51.446;6.792;2023-05-17T10:24:37;15.50;99.90
46492;DHT22;32206;51.446;6.792;2023-05-17T10:27:05;15.50;99.90
46492;DHT22;32206;51.446;6.792;2023-05-17T10:29:32;15.70;99.90
46492;DHT22;32206;51.446;6.792;2023-05-17T10:32:03;15.70;99.90
46492;DHT22;32206;51.446;6.792;2023-05-17T10:34:34;15.60;99.90
46492;DHT22;32206;51.446;6.792;2023-05-17T10:37:01;15.40;99.90
46492;DHT22;32206;51.446;6.792;2023-05-17T10:39:27;15.30;99.90
46492;DHT22;32206;51.446;6.792;2023-05-17T10:41:55;15.50;99.90
46492;DHT22;32206;51.446;6.792;2023-05-17T10:44:21;15.70;99.90
46492;DHT22;32206;51.446;6.792;2023-05-17T10:46:54;15.90;99.90
46492;DHT22;32206;51.446;6.792;2023-05-17T10:49:33;16.00;99.90
46492;DHT22;32206;51.446;6.792;2023-05-17T10:52:30;16.20;99.90
46492;DHT22;32206;51.446;6.792;2023-05-17T10:58:25;15.80;99.90
46492;DHT22;32206;51.446;6.792;2023-05-17T11:00:52;15.80;99.90
46492;DHT22;32206;51.446;6.792;2023-05-17T11:03:25;16.10;99.90
46492;DHT22;32206;51.446;6.792;2023-05-17T11:09:16;16.60;99.90
46492;DHT22;32206;51.446;6.792;2023-05-17T11:12:02;16.40;99.90
46492;DHT22;32206;51.446;6.792;2023-05-17T11:28:47;17.60;99.90
46492;DHT22;32206;51.446;6.792;2023-05-17T11:44:35;18.40;99.90
46492;DHT22;32206;51.446;6.792;2023-05-17T11:47:06;18.10;99.90
46492;DHT22;32206;51.446;6.792;2023-05-17T11:49:39;17.90;99.90
46492;DHT22;32206;51.446;6.792;2023-05-17T11:52:06;17.80;99.90
46492;DHT22;32206;51.446;6.792;2023-05-17T11:54:32;17.90;99.90
46492;DHT22;32206;51.446;6.792;2023-05-17T11:56:59;18.10;99.90
46492;DHT22;32206;51.446;6.792;2023-05-17T11:59:25;18.30;99.90
46492;DHT22;32206;51.446;6.792;2023-05-17T12:01:51;18.10;99.90
46492;DHT22;32206;51.446;6.792;2023-05-17T12:04:24;18.10;99.90
46492;DHT22;32206;51.446;6.792;2023-05-17T12:06:53;18.20;99.90
46492;DHT22;32206;51.446;6.792;2023-05-17T12:09:21;18.10;99.90
46492;DHT22;32206;51.446;6.792;2023-05-17T12:11:47;18.10;99.90
46492;DHT22;32206;51.446;6.792;2023-05-17T12:14:17;18.30;99.90
46492;DHT22;32206;51.446;6.792;2023-05-17T12:16:43;18.50;99.90
46492;DHT22;32206;51.446;6.792;2023-05-17T12:19:19;18.60;99.90
46492;DHT22;32206;51.446;6.792;2023-05-17T12:21:45;18.60;99.90
46492;DHT22;32206;51.446;6.792;2023-05-17T12:24:12;18.60;99.90
46492;DHT22;32206;51.446;6.792;2023-05-17T12:30:13;18.00;99.90
46492;DHT22;32206;51.446;6.792;2023-05-17T12:32:39;17.90;99.90
46492;DHT22;32206;51.446;6.792;2023-05-17T12:35:05;18.20;99.90
46492;DHT22;32206;51.446;6.792;2023-05-17T12:37:31;18.30;99.90
46492;DHT22;32206;51.446;6.792;2023-05-17T12:39:59;18.50;99.90
46492;DHT22;32206;51.446;6.792;2023-05-17T12:45:51;18.80;99.90
46492;DHT22;32206;51.446;6.792;2023-05-17T12:48:18;18.80;99.90
46492;DHT22;32206;51.446;6.792;2023-05-17T12:50:43;18.50;99.90
46492;DHT22;32206;51.446;6.792;2023-05-17T12:53:13;18.40;99.90
46492;DHT22;32206;51.446;6.792;2023-05-17T12:55:39;18.50;99.90
46492;DHT22;32206;51.446;6.792;2023-05-17T12:58:05;18.80;99.90
46492;DHT22;32206;51.446;6.792;2023-05-17T13:00:30;18.80;99.90
46492;DHT22;32206;51.446;6.792;2023-05-17T13:02:56;19.00;99.90
46492;DHT22;32206;51.446;6.792;2023-05-17T13:08:57;19.10;99.90
46492;DHT22;32206;51.446;6.792;2023-05-17T13:11:24;19.20;99.90
46492;DHT22;32206;51.446;6.792;2023-05-17T13:13:50;19.20;99.90
46492;DHT22;32206;51.446;6.792;2023-05-17T13:16:28;19.20;99.90
46492;DHT22;32206;51.446;6.792;2023-05-17T13:18:54;19.00;99.90
46492;DHT22;32206;51.446;6.792;2023-05-17T13:21:20;18.60;99.90
46492;DHT22;32206;51.446;6.792;2023-05-17T13:23:47;18.50;99.90
46492;DHT22;32206;51.446;6.792;2023-05-17T13:26:14;18.40;99.90
46492;DHT22;32206;51.446;6.792;2023-05-17T13:28:40;18.60;99.90
46492;DHT22;32206;51.446;6.792;2023-05-17T13:31:06;18.70;99.90
46492;DHT22;32206;51.446;6.792;2023-05-17T13:33:31;18.80;99.90
46492;DHT22;32206;51.446;6.792;2023-05-17T13:46:01;19.10;99.90
46492;DHT22;32206;51.446;6.792;2023-05-17T13:48:28;19.30;99.90
46492;DHT22;32206;51.446;6.792;2023-05-17T13:50:53;19.20;99.90
46492;DHT22;32206;51.446;6.792;2023-05-17T13:53:19;19.20;99.90
46492;DHT22;32206;51.446;6.792;2023-05-17T13:55:45;18.90;99.90
46492;DHT22;32206;51.446;6.792;2023-05-17T13:58:11;18.80;99.90
46492;DHT22;32206;51.446;6.792;2023-05-17T14:00:37;18.80;99.90
46492;DHT22;32206;51.446;6.792;2023-05-17T14:03:05;19.00;99.90
46492;DHT22;32206;51.446;6.792;2023-05-17T14:05:31;19.00;99.90
46492;DHT22;32206;51.446;6.792;2023-05-17T14:07:57;19.00;99.90
46492;DHT22;32206;51.446;6.792;2023-05-17T14:10:23;19.00;99.90
46492;DHT22;32206;51.446;6.792;2023-05-17T14:12:49;19.00;99.90
46492;DHT22;32206;51.446;6.792;2023-05-17T14:15:14;19.00;99.90
46492;DHT22;32206;51.446;6.792;2023-05-17T14:17:40;19.00;99.90
46492;DHT22;32206;51.446;6.792;2023-05-17T14:20:06;19.20;99.90
46492;DHT22;32206;51.446;6.792;2023-05-17T14:22:33;19.20;99.90
46492;DHT22;32206;51.446;6.792;2023-05-17T14:31:43;19.30;99.90
46492;DHT22;32206;51.446;6.792;2023-05-17T14:34:08;19.30;99.90
46492;DHT22;32206;51.446;6.792;2023-05-17T14:36:34;19.40;99.90
46492;DHT22;32206;51.446;6.792;2023-05-17T14:39:00;19.40;99.90
46492;DHT22;32206;51.446;6.792;2023-05-17T14:45:22;19.50;99.90
46492;DHT22;32206;51.446;6.792;2023-05-17T14:47:48;19.50;99.90
46492;DHT22;32206;51.446;6.792;2023-05-17T14:50:14;19.40;99.90
46492;DHT22;32206;51.446;6.792;2023-05-17T14:52:40;19.40;99.90
46492;DHT22;32206;51.446;6.792;2023-05-17T14:55:21;19.10;99.90
46492;DHT22;32206;51.446;6.792;2023-05-17T14:57:46;18.90;99.90
46492;DHT22;32206;51.446;6.792;2023-05-17T15:00:12;19.10;99.90
46492;DHT22;32206;51.446;6.792;2023-05-17T15:02:38;18.60;99.90
46492;DHT22;32206;51.446;6.792;2023-05-17T15:08:26;18.90;99.90
46492;DHT22;32206;51.446;6.792;2023-05-17T15:10:52;19.00;99.90
46492;DHT22;32206;51.446;6.792;2023-05-17T15:13:18;19.10;99.90
46492;DHT22;32206;51.446;6.792;2023-05-17T15:15:45;19.20;99.90
46492;DHT22;32206;51.446;6.792;2023-05-17T15:18:14;19.30;99.90
46492;DHT22;32206;51.446;6.792;2023-05-17T15:24:33;19.40;99.90
46492;DHT22;32206;51.446;6.792;2023-05-17T15:26:59;19.40;99.90
46492;DHT22;32206;51.446;6.792;2023-05-17T15:29:25;19.30;99.90
46492;DHT22;32206;51.446;6.792;2023-05-17T15:31:50;19.40;99.90
46492;DHT22;32206;51.446;6.792;2023-05-17T15:34:16;19.30;99.90
46492;DHT22;32206;51.446;6.792;2023-05-17T15:36:42;19.30;99.90
46492;DHT22;32206;51.446;6.792;2023-05-17T15:39:07;19.40;99.90
46492;DHT22;32206;51.446;6.792;2023-05-17T15:45:24;19.10;99.90
46492;DHT22;32206;51.446;6.792;2023-05-17T15:47:50;18.90;99.90
46492;DHT22;32206;51.446;6.792;2023-05-17T15:50:16;18.80;99.90
46492;DHT22;32206;51.446;6.792;2023-05-17T15:52:41;18.80;99.90
46492;DHT22;32206;51.446;6.792;2023-05-17T15:55:07;18.90;99.90
46492;DHT22;32206;51.446;6.792;2023-05-17T15:57:34;18.70;99.90
46492;DHT22;32206;51.446;6.792;2023-05-17T16:00:00;18.60;99.90
46492;DHT22;32206;51.446;6.792;2023-05-17T16:02:25;18.40;99.90
46492;DHT22;32206;51.446;6.792;2023-05-17T16:04:51;18.50;99.90
46492;DHT22;32206;51.446;6.792;2023-05-17T16:07:17;18.70;99.90
46492;DHT22;32206;51.446;6.792;2023-05-17T16:09:42;18.80;99.90
46492;DHT22;32206;51.446;6.792;2023-05-17T16:15:33;18.90;99.90
46492;DHT22;32206;51.446;6.792;2023-05-17T16:17:59;18.90;99.90
46492;DHT22;32206;51.446;6.792;2023-05-17T16:20:24;18.90;99.90
46492;DHT22;32206;51.446;6.792;2023-05-17T16:29:31;18.70;99.90
46492;DHT22;32206;51.446;6.792;2023-05-17T16:31:57;18.70;99.90
46492;DHT22;32206;51.446;6.792;2023-05-17T16:34:23;18.70;99.90
46492;DHT22;32206;51.446;6.792;2023-05-17T16:36:50;18.60;99.90
46492;DHT22;32206;51.446;6.792;2023-05-17T16:39:16;18.70;99.90
46492;DHT22;32206;51.446;6.792;2023-05-17T16:41:42;18.70;99.90
46492;DHT22;32206;51.446;6.792;2023-05-17T16:44:07;18.60;99.90
46492;DHT22;32206;51.446;6.792;2023-05-17T16:49:56;18.40;99.90
46492;DHT22;32206;51.446;6.792;2023-05-17T16:52:23;18.10;99.90
46492;DHT22;32206;51.446;6.792;2023-05-17T16:54:48;18.10;99.90
46492;DHT22;32206;51.446;6.792;2023-05-17T16:57:14;17.90;99.90
46492;DHT22;32206;51.446;6.792;2023-05-17T16:59:41;17.80;99.90
46492;DHT22;32206;51.446;6.792;2023-05-17T17:02:07;17.60;99.90
46492;DHT22;32206;51.446;6.792;2023-05-17T17:04:33;17.90;99.90
46492;DHT22;32206;51.446;6.792;2023-05-17T17:06:59;17.80;99.90
46492;DHT22;32206;51.446;6.792;2023-05-17T17:09:25;17.70;99.90
46492;DHT22;32206;51.446;6.792;2023-05-17T17:11:51;17.60;99.90
46492;DHT22;32206;51.446;6.792;2023-05-17T17:14:17;17.60;99.90
46492;DHT22;32206;51.446;6.792;2023-05-17T17:16:43;17.60;99.90
46492;DHT22;32206;51.446;6.792;2023-05-17T17:19:09;17.50;99.90
46492;DHT22;32206;51.446;6.792;2023-05-17T17:21:35;17.30;99.90
46492;DHT22;32206;51.446;6.792;2023-05-17T17:24:02;17.20;99.90
46492;DHT22;32206;51.446;6.792;2023-05-17T17:26:28;17.20;99.90
46492;DHT22;32206;51.446;6.792;2023-05-17T17:28:54;17.20;99.90
46492;DHT22;32206;51.446;6.792;2023-05-17T17:31:20;17.10;99.90
46492;DHT22;32206;51.446;6.792;2023-05-17T17:33:46;17.10;99.90
46492;DHT22;32206;51.446;6.792;2023-05-17T17:36:12;17.00;99.90
46492;DHT22;32206;51.446;6.792;2023-05-17T17:38:37;16.90;99.90
46492;DHT22;32206;51.446;6.792;2023-05-17T17:47:48;17.20;99.90
46492;DHT22;32206;51.446;6.792;2023-05-17T17:50:14;17.50;99.90
46492;DHT22;32206;51.446;6.792;2023-05-17T17:52:40;17.30;99.90
46492;DHT22;32206;51.446;6.792;2023-05-17T17:55:07;17.10;99.90
46492;DHT22;32206;51.446;6.792;2023-05-17T17:57:34;16.90;99.90
46492;DHT22;32206;51.446;6.792;2023-05-17T18:00:00;16.70;99.90
46492;DHT22;32206;51.446;6.792;2023-05-17T18:02:25;16.60;99.90
46492;DHT22;32206;51.446;6.792;2023-05-17T18:04:51;16.50;99.90
46492;DHT22;32206;51.446;6.792;2023-05-17T18:07:17;16.40;99.90
46492;DHT22;32206;51.446;6.792;2023-05-17T18:09:43;16.30;99.90
46492;DHT22;32206;51.446;6.792;2023-05-17T18:12:27;16.30;99.90
46492;DHT22;32206;51.446;6.792;2023-05-17T18:14:53;16.20;99.90
46492;DHT22;32206;51.446;6.792;2023-05-17T18:17:19;16.20;99.90
46492;DHT22;32206;51.446;6.792;2023-05-17T18:19:45;16.20;99.90
46492;DHT22;32206;51.446;6.792;2023-05-17T18:22:11;16.10;99.90
46492;DHT22;32206;51.446;6.792;2023-05-17T18:24:37;16.00;99.90
46492;DHT22;32206;51.446;6.792;2023-05-17T18:27:03;16.00;99.90
46492;DHT22;32206;51.446;6.792;2023-05-17T18:29:29;16.00;99.90
46492;DHT22;32206;51.446;6.792;2023-05-17T18:31:54;15.90;99.90
46492;DHT22;32206;51.446;6.792;2023-05-17T18:34:20;15.90;99.90
46492;DHT22;32206;51.446;6.792;2023-05-17T18:36:46;15.80;99.90
46492;DHT22;32206;51.446;6.792;2023-05-17T18:39:12;15.70;99.90
46492;DHT22;32206;51.446;6.792;2023-05-17T18:41:37;15.70;99.90
46492;DHT22;32206;51.446;6.792;2023-05-17T18:44:03;15.50;99.90
46492;DHT22;32206;51.446;6.792;2023-05-17T18:46:29;15.50;99.90
46492;DHT22;32206;51.446;6.792;2023-05-17T18:48:55;15.40;99.90
46492;DHT22;32206;51.446;6.792;2023-05-17T18:51:20;15.30;99.90
46492;DHT22;32206;51.446;6.792;2023-05-17T18:53:46;15.20;99.90
46492;DHT22;32206;51.446;6.792;2023-05-17T18:56:12;14.90;99.90
46492;DHT22;32206;51.446;6.792;2023-05-17T18:58:40;15.10;99.90
46492;DHT22;32206;51.446;6.792;2023-05-17T19:01:06;15.00;99.90
46492;DHT22;32206;51.446;6.792;2023-05-17T19:03:31;14.90;99.90